Time;durP1;ratioP1;P1;durP2;ratioP2;P2;SDS_P1;SDS_P2;PMS_P1;PMS_P2;Temp;Humidity;BMP_temperature;BMP_pressure;BME280_temperature;BME280_humidity;BME280_pressure;Samples;Min_cycle;Max_cycle;Signal;HPM_P1;HPM_P2
2023/03/10 00:00:42;;;;;;;;;;;;;;;6.62;100.00;93950.13;10399436;28;2324;-69
2023/03/10 00:05:55;;;;;;;;;;;;;;;6.72;100.00;93936.56;10380287;28;2304;-69
2023/03/10 00:10:59;;;;;;;;;;;;;;;6.78;100.00;93922.03;10388787;28;1958;-69
2023/03/10 00:16:04;;;;;;;;;;;;;;;6.70;100.00;93914.72;10393275;28;2412;-70
2023/03/10 00:21:07;;;;;;;;;;;;;;;6.53;100.00;93912.59;10400260;28;2313;-68
2023/03/10 00:26:09;;;;;;;;;;;;;;;6.37;100.00;93897.94;10391095;28;2288;-68
2023/03/10 00:31:12;;;;;;;;;;;;;;;6.34;100.00;93895.84;10391503;28;2370;-70
2023/03/10 00:36:16;;;;;;;;;;;;;;;6.21;100.00;93892.06;10390181;28;2383;-70
2023/03/10 00:41:19;;;;;;;;;;;;;;;6.09;100.00;93881.84;10397133;28;2281;-69
2023/03/10 00:46:33;;;;;;;;;;;;;;;6.09;100.00;93875.72;10382838;28;2355;-68
2023/03/10 00:51:36;;;;;;;;;;;;;;;6.21;100.00;93866.16;10388277;28;2378;-69
2023/03/10 00:56:38;;;;;;;;;;;;;;;6.20;100.00;93864.59;10397382;28;2354;-69
2023/03/10 01:01:41;;;;;;;;;;;;;;;6.10;100.00;93845.28;10395873;28;2385;-69
2023/03/10 01:06:46;;;;;;;;;;;;;;;5.96;100.00;93838.03;10398625;28;2310;-69
2023/03/10 01:11:49;;;;;;;;;;;;;;;5.79;100.00;93828.94;10399759;28;2284;-71
2023/03/10 01:16:51;;;;;;;;;;;;;;;5.69;100.00;93811.25;10396887;28;2273;-67
2023/03/10 01:21:54;;;;;;;;;;;;;;;5.67;100.00;93800.88;10406881;28;2268;-68
2023/03/10 01:26:59;;;;;;;;;;;;;;;5.72;100.00;93794.66;10407571;28;2343;-67
2023/03/10 01:32:01;;;;;;;;;;;;;;;5.73;100.00;93785.59;10397378;28;1994;-68
2023/03/10 01:37:04;;;;;;;;;;;;;;;5.76;100.00;93782.34;10395698;28;2290;-69
2023/03/10 01:42:07;;;;;;;;;;;;;;;5.67;100.00;93763.56;10396000;28;2370;-68
2023/03/10 01:47:10;;;;;;;;;;;;;;;5.57;100.00;93754.94;10392737;28;1955;-68
2023/03/10 01:52:12;;;;;;;;;;;;;;;5.55;100.00;93743.78;10399741;28;1981;-75
2023/03/10 01:57:15;;;;;;;;;;;;;;;5.61;100.00;93734.63;10400094;28;2394;-71
2023/03/10 02:02:18;;;;;;;;;;;;;;;5.50;100.00;93733.19;10407187;28;1967;-68
2023/03/10 02:07:21;;;;;;;;;;;;;;;5.49;100.00;93715.63;10400446;28;2407;-68
2023/03/10 02:12:23;;;;;;;;;;;;;;;5.39;100.00;93704.03;10398866;28;1966;-69
2023/03/10 02:17:36;;;;;;;;;;;;;;;5.40;100.00;93702.16;10401214;28;2367;-70
2023/03/10 02:22:39;;;;;;;;;;;;;;;5.58;100.00;93696.00;10393335;28;2346;-67
2023/03/10 02:27:41;;;;;;;;;;;;;;;5.76;100.00;93681.03;10392956;28;2340;-67
2023/03/10 02:32:44;;;;;;;;;;;;;;;5.85;100.00;93673.13;10392192;28;2400;-70
2023/03/10 02:37:49;;;;;;;;;;;;;;;5.86;100.00;93661.41;10393937;28;2345;-67
2023/03/10 02:42:52;;;;;;;;;;;;;;;5.84;100.00;93652.91;10393711;28;2357;-69
2023/03/10 02:47:55;;;;;;;;;;;;;;;5.80;100.00;93647.38;10387974;28;2340;-70
2023/03/10 02:52:58;;;;;;;;;;;;;;;5.85;100.00;93639.28;10391035;28;2656;-70
2023/03/10 02:58:01;;;;;;;;;;;;;;;5.87;100.00;93639.78;10396761;28;2332;-69
2023/03/10 03:03:04;;;;;;;;;;;;;;;5.89;100.00;93634.13;10399869;28;2287;-73
2023/03/10 03:08:06;;;;;;;;;;;;;;;5.92;100.00;93623.72;10389587;28;2347;-69
2023/03/10 03:13:19;;;;;;;;;;;;;;;5.99;100.00;93615.31;10401255;28;1993;-68
2023/03/10 03:18:31;;;;;;;;;;;;;;;6.04;100.00;93619.72;10391262;28;2249;-68
2023/03/10 03:23:35;;;;;;;;;;;;;;;6.03;100.00;93610.16;10389589;28;2336;-68
2023/03/10 03:28:37;;;;;;;;;;;;;;;6.13;100.00;93613.41;10399412;28;2457;-68
2023/03/10 03:33:41;;;;;;;;;;;;;;;6.24;100.00;93603.34;10389901;28;2405;-67
2023/03/10 03:38:43;;;;;;;;;;;;;;;6.27;100.00;93613.41;10387080;28;2627;-70
2023/03/10 03:43:47;;;;;;;;;;;;;;;6.26;100.00;93627.84;10400704;28;2386;-70
2023/03/10 03:48:50;;;;;;;;;;;;;;;6.31;100.00;93633.06;10392518;28;2272;-68
2023/03/10 03:53:52;;;;;;;;;;;;;;;6.37;100.00;93639.09;10399909;28;2387;-70
2023/03/10 03:58:55;;;;;;;;;;;;;;;6.37;100.00;93655.91;10393245;28;2095;-70
2023/03/10 04:03:57;;;;;;;;;;;;;;;6.27;100.00;93704.13;10401424;28;2359;-70
2023/03/10 04:08:59;;;;;;;;;;;;;;;6.16;100.00;93724.84;10394329;28;2080;-68
2023/03/10 04:14:02;;;;;;;;;;;;;;;6.10;100.00;93719.91;10407392;28;2418;-67
2023/03/10 04:19:06;;;;;;;;;;;;;;;6.08;100.00;93730.09;10403879;28;2368;-69
2023/03/10 04:24:08;;;;;;;;;;;;;;;6.15;100.00;93717.16;10400995;28;2371;-69
2023/03/10 04:29:13;;;;;;;;;;;;;;;6.37;100.00;93719.94;10393026;28;1942;-68
2023/03/10 04:34:16;;;;;;;;;;;;;;;6.60;100.00;93704.78;10408453;28;2041;-68
2023/03/10 04:39:19;;;;;;;;;;;;;;;6.76;100.00;93700.72;10392769;28;2308;-69
2023/03/10 04:44:21;;;;;;;;;;;;;;;7.03;100.00;93699.84;10400163;28;2297;-70
2023/03/10 04:49:32;;;;;;;;;;;;;;;7.18;100.00;93709.38;10402579;28;2352;-68
2023/03/10 04:54:35;;;;;;;;;;;;;;;7.35;100.00;93695.38;10397038;28;2312;-69
2023/03/10 04:59:37;;;;;;;;;;;;;;;7.52;100.00;93708.88;10396770;28;2351;-70
2023/03/10 05:04:40;;;;;;;;;;;;;;;7.67;100.00;93713.06;10401669;28;1996;-69
2023/03/10 05:09:44;;;;;;;;;;;;;;;7.83;100.00;93713.47;10397541;28;1976;-68
2023/03/10 05:14:47;;;;;;;;;;;;;;;7.84;100.00;93715.06;10400440;28;2349;-67
2023/03/10 05:19:49;;;;;;;;;;;;;;;7.90;100.00;93705.81;10400507;28;2002;-69
2023/03/10 05:24:52;;;;;;;;;;;;;;;8.00;100.00;93708.19;10394595;28;2304;-69
2023/03/10 05:29:55;;;;;;;;;;;;;;;7.99;100.00;93705.84;10398009;28;2319;-69
2023/03/10 05:34:58;;;;;;;;;;;;;;;7.99;100.00;93725.34;10404042;28;2287;-69
2023/03/10 05:40:00;;;;;;;;;;;;;;;8.10;100.00;93710.63;10392185;28;2669;-68
2023/03/10 05:45:04;;;;;;;;;;;;;;;8.16;100.00;93718.53;10417246;28;2493;-69
2023/03/10 05:50:07;;;;;;;;;;;;;;;8.18;100.00;93705.59;10393588;28;2282;-69
2023/03/10 05:55:09;;;;;;;;;;;;;;;8.20;100.00;93706.09;10400566;28;2344;-71
2023/03/10 06:00:12;;;;;;;;;;;;;;;8.19;100.00;93707.97;10396066;28;2451;-70
2023/03/10 06:05:24;;;;;;;;;;;;;;;8.26;100.00;93691.47;10399747;28;2339;-69
2023/03/10 06:10:27;;;;;;;;;;;;;;;8.23;100.00;93684.06;10402436;28;2273;-69
2023/03/10 06:15:33;;;;;;;;;;;;;;;8.23;100.00;93681.41;10413808;28;2379;-77
2023/03/10 06:20:35;;;;;;;;;;;;;;;8.11;100.00;93677.41;10413758;28;1939;-77
2023/03/10 06:25:38;;;;;;;;;;;;;;;8.10;100.00;93675.84;10408992;28;2371;-72
2023/03/10 06:30:41;;;;;;;;;;;;;;;8.12;100.00;93668.28;10413465;28;2443;-68
2023/03/10 06:35:43;;;;;;;;;;;;;;;8.05;100.00;93665.25;10413243;28;2371;-68
2023/03/10 06:40:46;;;;;;;;;;;;;;;7.96;100.00;93632.34;10405335;28;2397;-72
2023/03/10 06:45:48;;;;;;;;;;;;;;;8.03;100.00;93626.53;10405089;28;2021;-69
2023/03/10 06:50:51;;;;;;;;;;;;;;;8.12;100.00;93611.28;10407122;28;2330;-67
2023/03/10 06:55:54;;;;;;;;;;;;;;;8.41;100.00;93626.84;10402279;28;2375;-71
2023/03/10 07:00:57;;;;;;;;;;;;;;;8.73;100.00;93614.91;10395553;28;1996;-67
2023/03/10 07:06:10;;;;;;;;;;;;;;;9.06;100.00;93612.53;10399353;28;2343;-68
2023/03/10 07:11:24;;;;;;;;;;;;;;;9.35;100.00;93608.41;10398410;28;2379;-69
2023/03/10 07:16:26;;;;;;;;;;;;;;;9.43;100.00;93586.16;10388246;28;2308;-70
2023/03/10 07:21:30;;;;;;;;;;;;;;;9.65;100.00;93583.25;10392458;28;2356;-71
2023/03/10 07:26:33;;;;;;;;;;;;;;;9.86;100.00;93590.59;10397117;28;2363;-71
2023/03/10 07:31:36;;;;;;;;;;;;;;;10.21;100.00;93607.34;10387197;28;2371;-71
2023/03/10 07:36:38;;;;;;;;;;;;;;;10.16;100.00;93604.84;10393259;28;2474;-69
2023/03/10 07:41:51;;;;;;;;;;;;;;;10.33;100.00;93604.78;10395497;28;1947;-70
2023/03/10 07:46:54;;;;;;;;;;;;;;;10.38;100.00;93601.13;10394163;28;1972;-71
2023/03/10 07:51:58;;;;;;;;;;;;;;;10.50;100.00;93598.53;10410164;28;2476;-70
2023/03/10 07:57:00;;;;;;;;;;;;;;;10.65;100.00;93594.47;10392989;28;2384;-70
2023/03/10 08:02:12;;;;;;;;;;;;;;;10.86;100.00;93589.91;10394542;28;2340;-71
2023/03/10 08:07:15;;;;;;;;;;;;;;;10.99;100.00;93574.63;10397266;28;2322;-73
2023/03/10 08:12:28;;;;;;;;;;;;;;;11.12;100.00;93580.81;10399452;28;2360;-75
2023/03/10 08:17:32;;;;;;;;;;;;;;;11.16;100.00;93566.41;10397259;28;2714;-72
2023/03/10 08:22:34;;;;;;;;;;;;;;;11.46;100.00;93558.22;10397710;28;2618;-73
2023/03/10 08:27:37;;;;;;;;;;;;;;;11.36;100.00;93545.97;10403999;28;2556;-75
2023/03/10 08:32:40;;;;;;;;;;;;;;;11.69;100.00;93539.75;10399141;28;2052;-73
2023/03/10 08:37:43;;;;;;;;;;;;;;;11.87;100.00;93539.22;10397418;28;2656;-72
2023/03/10 08:42:45;;;;;;;;;;;;;;;11.89;100.00;93528.91;10401553;28;2723;-73
2023/03/10 08:47:50;;;;;;;;;;;;;;;11.96;100.00;93528.38;10393632;28;2557;-71
2023/03/10 08:52:52;;;;;;;;;;;;;;;12.28;100.00;93533.94;10399583;28;2533;-71
2023/03/10 08:57:54;;;;;;;;;;;;;;;12.26;100.00;93538.91;10397162;28;2762;-73
2023/03/10 09:02:57;;;;;;;;;;;;;;;12.63;100.00;93542.31;10392395;28;2638;-72
2023/03/10 09:07:59;;;;;;;;;;;;;;;12.84;99.79;93532.16;10392710;28;2665;-77
2023/03/10 09:13:03;;;;;;;;;;;;;;;13.44;96.35;93535.75;10438578;28;2744;-74
2023/03/10 09:18:16;;;;;;;;;;;;;;;13.61;92.24;93541.97;10400061;28;2711;-72
2023/03/10 09:23:28;;;;;;;;;;;;;;;13.39;91.36;93543.31;10400264;28;2747;-75
2023/03/10 09:28:31;;;;;;;;;;;;;;;13.70;90.77;93548.00;10401678;28;2547;-70
2023/03/10 09:33:33;;;;;;;;;;;;;;;14.43;85.85;93555.53;10403203;28;2595;-72
2023/03/10 09:38:36;;;;;;;;;;;;;;;14.52;84.60;93550.78;10402977;28;2660;-72
2023/03/10 09:43:38;;;;;;;;;;;;;;;14.69;80.84;93570.44;10417374;28;2699;-73
2023/03/10 09:48:40;;;;;;;;;;;;;;;14.75;81.55;93560.91;10403469;28;2649;-72
2023/03/10 09:53:45;;;;;;;;;;;;;;;14.13;78.61;93560.66;10405275;28;2587;-71
2023/03/10 09:58:50;;;;;;;;;;;;;;;13.91;72.83;93562.03;10396262;28;2120;-72
2023/03/10 10:03:53;;;;;;;;;;;;;;;13.79;72.64;93583.69;10399736;28;2676;-73
2023/03/10 10:08:56;;;;;;;;;;;;;;;13.29;77.79;93597.78;10396570;28;2759;-75
2023/03/10 10:14:07;;;;;;;;;;;;;;;12.05;100.00;93630.56;10400386;28;2650;-73
2023/03/10 10:19:17;;;;;;;;;;;;;;;10.81;100.00;93651.91;10396839;28;2581;-72
2023/03/10 10:24:20;;;;;;;;;;;;;;;10.16;100.00;93661.22;10400217;28;2569;-74
2023/03/10 10:29:22;;;;;;;;;;;;;;;10.06;100.00;93685.75;10405845;28;2676;-73
2023/03/10 10:34:25;;;;;;;;;;;;;;;9.90;100.00;93683.56;10402497;28;2637;-72
2023/03/10 10:39:30;;;;;;;;;;;;;;;9.58;100.00;93710.91;10403687;28;2613;-71
2023/03/10 10:44:36;;;;;;;;;;;;;;;9.23;100.00;93710.94;10439996;28;2610;-72
2023/03/10 10:49:38;;;;;;;;;;;;;;;8.82;100.00;93704.09;10408134;28;1957;-71
2023/03/10 10:54:42;;;;;;;;;;;;;;;8.68;100.00;93691.94;10405886;28;2709;-73
2023/03/10 10:59:45;;;;;;;;;;;;;;;8.89;100.00;93666.91;10392865;28;2653;-73
2023/03/10 11:04:47;;;;;;;;;;;;;;;9.08;100.00;93657.78;10394438;28;2648;-72
2023/03/10 11:09:49;;;;;;;;;;;;;;;9.26;100.00;93637.91;10404619;28;2624;-73
2023/03/10 11:14:52;;;;;;;;;;;;;;;9.47;100.00;93628.09;10403037;28;2652;-72
2023/03/10 11:19:55;;;;;;;;;;;;;;;9.77;100.00;93617.47;10410624;28;2629;-73
2023/03/10 11:24:57;;;;;;;;;;;;;;;10.23;100.00;93613.97;10421154;28;2608;-72
2023/03/10 11:30:00;;;;;;;;;;;;;;;10.25;100.00;93595.69;10403949;28;1925;-73
2023/03/10 11:35:03;;;;;;;;;;;;;;;10.43;100.00;93591.00;10400836;28;2079;-72
2023/03/10 11:40:06;;;;;;;;;;;;;;;10.55;100.00;93574.16;10397218;28;2635;-72
2023/03/10 11:45:09;;;;;;;;;;;;;;;10.57;100.00;93573.84;10397650;28;2615;-72
2023/03/10 11:50:11;;;;;;;;;;;;;;;10.72;100.00;93563.28;10395498;28;2556;-72
2023/03/10 11:55:14;;;;;;;;;;;;;;;11.06;100.00;93561.41;10391001;28;2595;-71
2023/03/10 12:00:17;;;;;;;;;;;;;;;11.53;100.00;93547.69;10391702;28;2572;-73
2023/03/10 12:05:30;;;;;;;;;;;;;;;11.92;97.63;93542.84;10391440;28;2029;-71
2023/03/10 12:10:41;;;;;;;;;;;;;;;12.04;94.96;93540.16;10395696;28;2772;-73
2023/03/10 12:15:48;;;;;;;;;;;;;;;12.15;91.49;93509.75;10393057;28;1999;-73
2023/03/10 12:20:51;;;;;;;;;;;;;;;12.29;90.04;93500.53;10399272;28;2189;-73
2023/03/10 12:25:54;;;;;;;;;;;;;;;12.09;89.42;93513.00;10389690;28;2548;-73
2023/03/10 12:31:05;;;;;;;;;;;;;;;12.23;86.08;93512.66;10392778;28;2022;-71
2023/03/10 12:36:08;;;;;;;;;;;;;;;12.65;85.10;93515.81;10393569;28;2054;-73
2023/03/10 12:41:14;;;;;;;;;;;;;;;12.92;80.04;93514.28;10430004;28;2624;-76
2023/03/10 12:46:16;;;;;;;;;;;;;;;13.10;77.25;93515.53;10390931;28;2591;-75
2023/03/10 12:51:29;;;;;;;;;;;;;;;12.39;82.84;93508.91;10393939;28;2107;-72
2023/03/10 12:56:35;;;;;;;;;;;;;;;12.45;84.48;93509.47;10393873;28;2947;-74
2023/03/10 13:01:38;;;;;;;;;;;;;;;12.51;82.89;93510.00;10395894;28;2626;-71
2023/03/10 13:06:47;;;;;;;;;;;;;;;12.23;86.05;93521.50;10408650;28;2645;-73
2023/03/10 13:11:50;;;;;;;;;;;;;;;12.17;86.79;93518.25;10407912;28;2589;-74
2023/03/10 13:16:53;;;;;;;;;;;;;;;12.00;87.19;93513.09;10406771;28;2633;-76
2023/03/10 13:21:55;;;;;;;;;;;;;;;11.92;89.04;93524.00;10402566;28;2641;-72
2023/03/10 13:26:58;;;;;;;;;;;;;;;11.86;92.11;93534.97;10401075;28;2036;-70
2023/03/10 13:32:00;;;;;;;;;;;;;;;11.90;91.77;93546.66;10401607;28;2084;-71
2023/03/10 13:37:03;;;;;;;;;;;;;;;11.77;94.31;93555.81;10398380;28;2899;-73
2023/03/10 13:42:06;;;;;;;;;;;;;;;11.70;95.07;93550.16;10406083;28;2640;-72
2023/03/10 13:47:08;;;;;;;;;;;;;;;11.86;96.53;93551.13;10399943;28;2099;-72
2023/03/10 13:52:11;;;;;;;;;;;;;;;11.70;97.15;93563.63;10387548;28;2635;-71
2023/03/10 13:57:13;;;;;;;;;;;;;;;11.85;95.72;93573.78;10394004;28;2106;-73
2023/03/10 14:02:15;;;;;;;;;;;;;;;11.71;97.18;93567.13;10396812;28;2691;-74
2023/03/10 14:07:18;;;;;;;;;;;;;;;11.71;96.90;93573.28;10395836;28;2009;-69
2023/03/10 14:12:23;;;;;;;;;;;;;;;11.30;100.00;93585.72;10395909;28;2549;-69
2023/03/10 14:17:26;;;;;;;;;;;;;;;10.81;100.00;93582.03;10394850;28;2506;-69
2023/03/10 14:22:29;;;;;;;;;;;;;;;10.91;100.00;93581.63;10395350;28;3065;-74
2023/03/10 14:27:31;;;;;;;;;;;;;;;10.91;100.00;93591.59;10398282;28;2685;-72
2023/03/10 14:32:35;;;;;;;;;;;;;;;10.96;100.00;93578.75;10399282;28;2576;-73
2023/03/10 14:37:37;;;;;;;;;;;;;;;11.21;100.00;93584.25;10395494;28;2580;-74
2023/03/10 14:42:40;;;;;;;;;;;;;;;11.19;100.00;93578.38;10393933;28;2639;-69
2023/03/10 14:47:42;;;;;;;;;;;;;;;10.93;100.00;93565.97;10395794;28;2103;-69
2023/03/10 14:52:45;;;;;;;;;;;;;;;11.03;100.00;93565.56;10397725;28;2524;-70
2023/03/10 14:57:47;;;;;;;;;;;;;;;10.89;100.00;93564.28;10398177;28;2688;-68
2023/03/10 15:02:50;;;;;;;;;;;;;;;10.62;100.00;93587.84;10396009;28;2677;-68
2023/03/10 15:07:54;;;;;;;;;;;;;;;9.90;100.00;93607.63;10400243;28;2578;-69
2023/03/10 15:12:56;;;;;;;;;;;;;;;9.28;100.00;93616.94;10401832;28;2603;-70
2023/03/10 15:17:58;;;;;;;;;;;;;;;8.99;100.00;93633.69;10392839;28;2586;-68
2023/03/10 15:23:02;;;;;;;;;;;;;;;8.98;100.00;93625.97;10390172;28;2579;-69
2023/03/10 15:28:07;;;;;;;;;;;;;;;8.95;100.00;93624.69;10389720;28;2697;-73
2023/03/10 15:33:10;;;;;;;;;;;;;;;8.93;100.00;93624.22;10395035;28;2601;-69
2023/03/10 15:38:13;;;;;;;;;;;;;;;8.97;100.00;93657.31;10387655;28;2682;-69
2023/03/10 15:43:16;;;;;;;;;;;;;;;8.64;100.00;93665.78;10391682;28;2618;-68
2023/03/10 15:48:19;;;;;;;;;;;;;;;8.32;100.00;93652.75;10392097;28;2594;-69
2023/03/10 15:53:23;;;;;;;;;;;;;;;8.00;100.00;93646.66;10395134;28;2725;-69
2023/03/10 15:58:25;;;;;;;;;;;;;;;7.57;100.00;93662.50;10390696;28;2648;-68
2023/03/10 16:03:29;;;;;;;;;;;;;;;7.43;100.00;93681.28;10391628;28;2856;-68
2023/03/10 16:08:36;;;;;;;;;;;;;;;7.25;100.00;93690.25;10391424;28;2771;-67
2023/03/10 16:13:38;;;;;;;;;;;;;;;7.15;100.00;93687.84;10400831;28;2658;-72
2023/03/10 16:18:41;;;;;;;;;;;;;;;7.18;100.00;93679.22;10396565;28;2555;-69
2023/03/10 16:23:43;;;;;;;;;;;;;;;7.33;100.00;93689.56;10399900;28;2469;-70
2023/03/10 16:28:46;;;;;;;;;;;;;;;7.44;100.00;93687.41;10395755;28;2032;-78
2023/03/10 16:33:49;;;;;;;;;;;;;;;7.48;100.00;93694.53;10395863;28;2613;-70
2023/03/10 16:38:52;;;;;;;;;;;;;;;7.57;100.00;93698.06;10406261;28;2568;-69
2023/03/10 16:43:55;;;;;;;;;;;;;;;7.67;100.00;93697.00;10408027;28;2691;-69
2023/03/10 16:48:57;;;;;;;;;;;;;;;7.69;100.00;93710.84;10407977;28;2665;-67
2023/03/10 16:53:59;;;;;;;;;;;;;;;7.67;100.00;93710.38;10404254;28;2621;-67
2023/03/10 16:59:12;;;;;;;;;;;;;;;7.63;100.00;93713.97;10402695;28;2765;-67
2023/03/10 17:04:14;;;;;;;;;;;;;;;7.63;100.00;93701.38;10407750;28;2092;-67
2023/03/10 17:09:17;;;;;;;;;;;;;;;7.57;100.00;93703.41;10404417;28;2646;-68
2023/03/10 17:14:20;;;;;;;;;;;;;;;7.46;100.00;93710.09;10404804;28;2654;-69
2023/03/10 17:19:27;;;;;;;;;;;;;;;7.43;100.00;93726.72;10404863;28;2021;-67
2023/03/10 17:24:30;;;;;;;;;;;;;;;7.33;100.00;93710.94;10406438;28;2654;-67
2023/03/10 17:29:33;;;;;;;;;;;;;;;7.24;100.00;93731.44;10401597;28;2838;-65
2023/03/10 17:34:35;;;;;;;;;;;;;;;7.24;100.00;93750.94;10398636;28;2651;-66
2023/03/10 17:39:39;;;;;;;;;;;;;;;7.24;100.00;93763.50;10410079;28;2767;-67
2023/03/10 17:44:42;;;;;;;;;;;;;;;7.29;100.00;93774.09;10407586;28;2633;-72
2023/03/10 17:49:44;;;;;;;;;;;;;;;7.30;100.00;93811.19;10395308;28;2589;-72
2023/03/10 17:54:47;;;;;;;;;;;;;;;7.20;100.00;93797.28;10398962;28;2669;-68
2023/03/10 17:59:50;;;;;;;;;;;;;;;7.09;100.00;93819.97;10405456;28;2795;-67
2023/03/10 18:04:53;;;;;;;;;;;;;;;7.01;100.00;93824.91;10399434;28;2604;-65
2023/03/10 18:09:57;;;;;;;;;;;;;;;6.81;100.00;93819.16;10408560;28;2778;-65
2023/03/10 18:14:59;;;;;;;;;;;;;;;6.64;100.00;93812.56;10432812;28;2104;-66
2023/03/10 18:20:05;;;;;;;;;;;;;;;6.54;100.00;93815.41;10397120;28;2041;-67
2023/03/10 18:25:09;;;;;;;;;;;;;;;6.48;100.00;93806.69;10396151;28;2769;-67
2023/03/10 18:30:11;;;;;;;;;;;;;;;6.43;100.00;93814.84;10398963;28;2614;-65
2023/03/10 18:35:16;;;;;;;;;;;;;;;6.38;100.00;93830.94;10399365;28;2735;-66
2023/03/10 18:40:20;;;;;;;;;;;;;;;6.58;100.00;93831.66;10410610;28;2608;-67
2023/03/10 18:45:22;;;;;;;;;;;;;;;6.68;100.00;93810.06;10394691;28;2756;-67
2023/03/10 18:50:25;;;;;;;;;;;;;;;6.80;100.00;93831.75;10397920;28;2035;-67
2023/03/10 18:55:28;;;;;;;;;;;;;;;6.60;100.00;93856.16;10400131;28;2655;-66
2023/03/10 19:00:32;;;;;;;;;;;;;;;4.82;100.00;93916.25;10395981;28;2621;-67
2023/03/10 19:05:35;;;;;;;;;;;;;;;4.23;100.00;93893.41;10393972;28;2637;-68
2023/03/10 19:10:38;;;;;;;;;;;;;;;4.29;100.00;93880.88;10392165;28;2646;-66
2023/03/10 19:15:43;;;;;;;;;;;;;;;4.45;100.00;93857.56;10399623;28;2581;-67
2023/03/10 19:20:46;;;;;;;;;;;;;;;4.71;100.00;93842.13;10394089;28;2679;-67
2023/03/10 19:25:48;;;;;;;;;;;;;;;4.85;100.00;93873.13;10426084;28;2637;-71
2023/03/10 19:30:50;;;;;;;;;;;;;;;4.81;100.00;93881.94;10396784;28;2043;-71
2023/03/10 19:35:54;;;;;;;;;;;;;;;4.63;100.00;93846.19;10406536;28;2642;-71
2023/03/10 19:40:57;;;;;;;;;;;;;;;4.52;100.00;93855.38;10400145;28;2604;-70
2023/03/10 19:46:00;;;;;;;;;;;;;;;4.61;100.00;93846.50;10402235;28;1997;-71
2023/03/10 19:51:04;;;;;;;;;;;;;;;4.89;100.00;93826.19;10398289;28;2643;-72
2023/03/10 19:56:08;;;;;;;;;;;;;;;5.07;100.00;93821.19;10402846;28;2609;-70
2023/03/10 20:01:12;;;;;;;;;;;;;;;5.27;100.00;93836.09;10404066;28;2628;-70
2023/03/10 20:06:14;;;;;;;;;;;;;;;5.31;100.00;93821.13;10405181;28;2608;-72
2023/03/10 20:11:17;;;;;;;;;;;;;;;5.32;100.00;93834.16;10404000;28;2744;-72
2023/03/10 20:16:22;;;;;;;;;;;;;;;5.38;100.00;93840.22;10405357;28;2629;-71
2023/03/10 20:21:26;;;;;;;;;;;;;;;5.40;100.00;93788.22;10407641;28;2613;-70
2023/03/10 20:26:29;;;;;;;;;;;;;;;5.48;100.00;93813.44;10398372;28;2745;-71
2023/03/10 20:31:33;;;;;;;;;;;;;;;5.43;100.00;93805.50;10400988;28;2576;-72
2023/03/10 20:36:35;;;;;;;;;;;;;;;5.49;100.00;93812.34;10394690;28;2030;-73
2023/03/10 20:41:41;;;;;;;;;;;;;;;5.59;100.00;93828.16;10435455;28;2579;-70
2023/03/10 20:46:46;;;;;;;;;;;;;;;5.56;100.00;93855.41;10399071;28;2547;-70
2023/03/10 20:51:48;;;;;;;;;;;;;;;5.64;100.00;93846.75;10407236;28;3012;-69
2023/03/10 20:56:52;;;;;;;;;;;;;;;5.71;100.00;93846.41;10399097;28;2607;-70
2023/03/10 21:01:55;;;;;;;;;;;;;;;5.69;100.00;93859.22;10408283;28;2015;-68
2023/03/10 21:06:57;;;;;;;;;;;;;;;5.46;100.00;93855.56;10401805;28;2649;-67
2023/03/10 21:12:00;;;;;;;;;;;;;;;4.92;100.00;93903.94;10401323;28;2086;-67
2023/03/10 21:17:04;;;;;;;;;;;;;;;4.66;100.00;93938.78;10409505;28;2597;-67
2023/03/10 21:22:06;;;;;;;;;;;;;;;4.60;100.00;93942.56;10406718;28;2773;-66
2023/03/10 21:27:10;;;;;;;;;;;;;;;4.52;100.00;93948.50;10401733;28;2726;-67
2023/03/10 21:32:12;;;;;;;;;;;;;;;4.11;100.00;93951.50;10400608;28;2588;-72
2023/03/10 21:37:16;;;;;;;;;;;;;;;3.79;100.00;93984.66;10401483;28;2654;-77
2023/03/10 21:42:19;;;;;;;;;;;;;;;3.61;100.00;93998.56;10411695;28;2590;-68
2023/03/10 21:47:22;;;;;;;;;;;;;;;3.61;100.00;94029.66;10409037;28;2637;-67
2023/03/10 21:52:26;;;;;;;;;;;;;;;3.58;100.00;94038.19;10405051;28;2027;-68
2023/03/10 21:57:28;;;;;;;;;;;;;;;3.59;100.00;94053.84;10409398;28;2581;-70
2023/03/10 22:02:34;;;;;;;;;;;;;;;3.48;100.00;94054.94;10410473;28;2550;-68
2023/03/10 22:07:37;;;;;;;;;;;;;;;3.42;100.00;94070.09;10413125;28;2657;-68
2023/03/10 22:12:39;;;;;;;;;;;;;;;3.55;100.00;94076.69;10402106;28;2631;-67
2023/03/10 22:17:42;;;;;;;;;;;;;;;3.60;100.00;94087.31;10400030;28;1978;-67
2023/03/10 22:22:45;;;;;;;;;;;;;;;3.54;100.00;94075.13;10398316;28;2641;-69
2023/03/10 22:27:47;;;;;;;;;;;;;;;3.42;100.00;94103.84;10406785;28;2554;-67
2023/03/10 22:32:50;;;;;;;;;;;;;;;3.53;100.00;94116.84;10398170;28;2592;-68
2023/03/10 22:37:53;;;;;;;;;;;;;;;3.28;100.00;94195.75;10398185;28;2473;-66
2023/03/10 22:42:56;;;;;;;;;;;;;;;2.82;100.00;94179.81;10398866;28;2597;-67
2023/03/10 22:47:59;;;;;;;;;;;;;;;2.41;100.00;94171.75;10398546;28;2632;-66
2023/03/10 22:53:12;;;;;;;;;;;;;;;2.36;100.00;94164.63;10404482;28;2569;-67
2023/03/10 22:58:15;;;;;;;;;;;;;;;2.19;100.00;94163.22;10402814;28;2040;-67
2023/03/10 23:03:18;;;;;;;;;;;;;;;2.36;100.00;94174.44;10398634;28;1999;-67
2023/03/10 23:08:21;;;;;;;;;;;;;;;2.48;100.00;94179.47;10403304;28;2592;-66
2023/03/10 23:13:24;;;;;;;;;;;;;;;2.47;100.00;94212.38;10398128;28;2048;-63
2023/03/10 23:18:36;;;;;;;;;;;;;;;2.46;100.00;94232.00;10405327;28;2608;-67
2023/03/10 23:23:42;;;;;;;;;;;;;;;2.47;100.00;94255.59;10400227;28;2569;-67
2023/03/10 23:28:46;;;;;;;;;;;;;;;2.44;100.00;94282.66;10395077;28;2634;-68
2023/03/10 23:33:48;;;;;;;;;;;;;;;2.36;100.00;94280.50;10400066;28;2635;-68
2023/03/10 23:38:51;;;;;;;;;;;;;;;2.37;100.00;94301.44;10393288;28;2554;-67
2023/03/10 23:43:54;;;;;;;;;;;;;;;2.20;100.00;94318.59;10394385;28;2629;-73
2023/03/10 23:48:59;;;;;;;;;;;;;;;2.06;100.00;94311.09;10393849;28;2714;-68
2023/03/10 23:54:05;;;;;;;;;;;;;;;1.87;100.00;94301.94;10401033;28;2578;-69
2023/03/10 23:59:08;;;;;;;;;;;;;;;1.58;100.00;94317.34;10398694;28;2637;-67
